Rome/Fiumicino Airport

Airport
ICAO code: 
LIRF
IATA Code: 
FCO
Summary
ICAO Region: 
EUR
Territory: 
Location: 
Fiumicino, Lazio
Serving: 
Rome
Elevation: 
13 ft
Coordinates: 
Aerial View: 
41° 48' 1.932" N, 12° 14' 34.608" E
Metar
Observation
LIRF 290320Z VRB02KT 8000 NSC 22/21 Q1012 NOSIG
Station
Roma Fiumicino
Date/Time
2022-06-29 03:20:00
Wind speed
02 kts
Lowest cloud amount
nil significant cloud
Temperature
22°C
Dew point
21°C
Humidity
94%
QNH
1012 hPa
Weather condition
n/a

Main international airport serving Rome.

Climatology

Dry-summer subtropical ”Mediterranean" climate (Köppen climate classification Csa) - characterized by hot, dry summers and mild winters. During the summer, subtropical high pressure cells dominate, making rainfall unlikely except for the occasional thunderstorm. In the winter, periodic storms bring rain (snow at higher elevations).

Runways

Designator Length Width Surface Rops
16C/34C 0 0 UNK Yes/Yes
7/25 3309 45 ASP Yes/Yes
16L/34R 3900 60 ASP Yes/Yes
16R/34L 3900 60 ASP Yes/Yes
Airport map: 
Aerial View: 

Accidents and Serious Incidents at or in the vicinity of LIRF

SKYbrary Partners:

Safety knowledge contributed by: